sensor_id;sensor_type;location;lat;lon;timestamp;temperature;humidity
13336;DHT22;6737;51.480;11.962;2023-02-26T00:01:17;0.90;99.90
13336;DHT22;6737;51.480;11.962;2023-02-26T00:03:51;0.80;99.90
13336;DHT22;6737;51.480;11.962;2023-02-26T00:06:17;0.90;99.90
13336;DHT22;6737;51.480;11.962;2023-02-26T00:08:44;0.90;99.90
13336;DHT22;6737;51.480;11.962;2023-02-26T00:11:10;0.90;99.90
13336;DHT22;6737;51.480;11.962;2023-02-26T00:13:38;0.80;99.90
13336;DHT22;6737;51.480;11.962;2023-02-26T00:18:51;0.70;99.90
13336;DHT22;6737;51.480;11.962;2023-02-26T00:21:19;0.70;99.90
13336;DHT22;6737;51.480;11.962;2023-02-26T00:23:45;0.80;99.90
13336;DHT22;6737;51.480;11.962;2023-02-26T00:26:11;0.70;99.90
13336;DHT22;6737;51.480;11.962;2023-02-26T00:28:37;0.60;99.90
13336;DHT22;6737;51.480;11.962;2023-02-26T00:31:03;0.60;99.90
13336;DHT22;6737;51.480;11.962;2023-02-26T00:33:29;0.60;99.90
13336;DHT22;6737;51.480;11.962;2023-02-26T00:36:11;0.50;99.90
13336;DHT22;6737;51.480;11.962;2023-02-26T00:38:40;0.50;99.90
13336;DHT22;6737;51.480;11.962;2023-02-26T00:41:08;0.40;99.90
13336;DHT22;6737;51.480;11.962;2023-02-26T00:43:34;0.40;99.90
13336;DHT22;6737;51.480;11.962;2023-02-26T00:56:49;0.40;99.90
13336;DHT22;6737;51.480;11.962;2023-02-26T00:59:16;0.30;99.90
13336;DHT22;6737;51.480;11.962;2023-02-26T01:01:42;0.20;99.90
13336;DHT22;6737;51.480;11.962;2023-02-26T01:04:09;0.20;99.90
13336;DHT22;6737;51.480;11.962;2023-02-26T01:06:42;0.20;99.90
13336;DHT22;6737;51.480;11.962;2023-02-26T01:09:30;0.20;99.90
13336;DHT22;6737;51.480;11.962;2023-02-26T01:11:59;0.20;99.90
13336;DHT22;6737;51.480;11.962;2023-02-26T01:14:27;0.00;99.90
13336;DHT22;6737;51.480;11.962;2023-02-26T01:19:57;-0.10;99.90
13336;DHT22;6737;51.480;11.962;2023-02-26T01:25:10;-0.10;99.90
13336;DHT22;6737;51.480;11.962;2023-02-26T01:27:37;-0.10;99.90
13336;DHT22;6737;51.480;11.962;2023-02-26T01:30:04;-0.10;99.90
13336;DHT22;6737;51.480;11.962;2023-02-26T01:35:41;-0.10;99.90
13336;DHT22;6737;51.480;11.962;2023-02-26T01:43:51;-0.20;99.90
13336;DHT22;6737;51.480;11.962;2023-02-26T01:46:22;-0.10;99.90
13336;DHT22;6737;51.480;11.962;2023-02-26T01:48:52;-0.10;99.90
13336;DHT22;6737;51.480;11.962;2023-02-26T01:51:51;-0.10;99.90
13336;DHT22;6737;51.480;11.962;2023-02-26T01:54:38;-0.10;99.90
13336;DHT22;6737;51.480;11.962;2023-02-26T01:57:08;-0.10;99.90
13336;DHT22;6737;51.480;11.962;2023-02-26T01:59:40;0.00;99.90
13336;DHT22;6737;51.480;11.962;2023-02-26T02:02:09;0.00;99.90
13336;DHT22;6737;51.480;11.962;2023-02-26T02:04:36;-0.10;99.90
13336;DHT22;6737;51.480;11.962;2023-02-26T02:07:04;-0.10;99.90
13336;DHT22;6737;51.480;11.962;2023-02-26T02:09:30;-0.10;99.90
13336;DHT22;6737;51.480;11.962;2023-02-26T02:15:17;-0.10;99.90
13336;DHT22;6737;51.480;11.962;2023-02-26T02:37:13;-0.10;99.90
13336;DHT22;6737;51.480;11.962;2023-02-26T02:40:13;-0.20;99.90
13336;DHT22;6737;51.480;11.962;2023-02-26T02:42:48;-0.20;99.90
13336;DHT22;6737;51.480;11.962;2023-02-26T02:45:18;-0.20;99.90
13336;DHT22;6737;51.480;11.962;2023-02-26T02:47:49;-0.10;99.90
13336;DHT22;6737;51.480;11.962;2023-02-26T02:50:36;-0.10;99.90
13336;DHT22;6737;51.480;11.962;2023-02-26T02:53:16;-0.20;99.90
13336;DHT22;6737;51.480;11.962;2023-02-26T02:56:14;-0.10;99.90
13336;DHT22;6737;51.480;11.962;2023-02-26T02:58:48;-0.10;99.90
13336;DHT22;6737;51.480;11.962;2023-02-26T03:01:18;-0.10;99.90
13336;DHT22;6737;51.480;11.962;2023-02-26T03:04:01;-0.10;99.90
13336;DHT22;6737;51.480;11.962;2023-02-26T03:06:30;-0.20;99.90
13336;DHT22;6737;51.480;11.962;2023-02-26T03:08:55;-0.10;99.90
13336;DHT22;6737;51.480;11.962;2023-02-26T03:11:23;-0.10;99.90
13336;DHT22;6737;51.480;11.962;2023-02-26T03:13:49;-0.20;99.90
13336;DHT22;6737;51.480;11.962;2023-02-26T03:16:41;-0.20;99.90
13336;DHT22;6737;51.480;11.962;2023-02-26T03:25:02;-0.30;99.90
13336;DHT22;6737;51.480;11.962;2023-02-26T03:27:32;-0.20;99.90
13336;DHT22;6737;51.480;11.962;2023-02-26T03:32:53;-0.20;99.90
13336;DHT22;6737;51.480;11.962;2023-02-26T03:38:56;-0.10;99.90
13336;DHT22;6737;51.480;11.962;2023-02-26T03:41:33;-0.20;99.90
13336;DHT22;6737;51.480;11.962;2023-02-26T03:44:51;-0.20;99.90
13336;DHT22;6737;51.480;11.962;2023-02-26T03:47:02;-0.20;99.90
13336;DHT22;6737;51.480;11.962;2023-02-26T03:49:34;-0.30;99.90
13336;DHT22;6737;51.480;11.962;2023-02-26T03:52:02;-0.30;99.90
13336;DHT22;6737;51.480;11.962;2023-02-26T03:54:40;-0.30;99.90
13336;DHT22;6737;51.480;11.962;2023-02-26T03:57:07;-0.30;99.90
13336;DHT22;6737;51.480;11.962;2023-02-26T03:59:34;-0.30;99.90
13336;DHT22;6737;51.480;11.962;2023-02-26T04:02:26;-0.20;99.90
13336;DHT22;6737;51.480;11.962;2023-02-26T04:04:58;-0.30;99.90
13336;DHT22;6737;51.480;11.962;2023-02-26T04:07:25;-0.30;99.90
13336;DHT22;6737;51.480;11.962;2023-02-26T04:09:51;-0.40;99.90
13336;DHT22;6737;51.480;11.962;2023-02-26T04:12:22;-0.40;99.90
13336;DHT22;6737;51.480;11.962;2023-02-26T04:14:49;-0.40;99.90
13336;DHT22;6737;51.480;11.962;2023-02-26T04:17:15;-0.40;99.90
13336;DHT22;6737;51.480;11.962;2023-02-26T04:19:41;-0.40;99.90
13336;DHT22;6737;51.480;11.962;2023-02-26T04:22:07;-0.40;99.90
13336;DHT22;6737;51.480;11.962;2023-02-26T04:24:32;-0.40;99.90
13336;DHT22;6737;51.480;11.962;2023-02-26T04:26:58;-0.30;99.90
13336;DHT22;6737;51.480;11.962;2023-02-26T04:29:24;-0.40;99.90
13336;DHT22;6737;51.480;11.962;2023-02-26T04:31:50;-0.40;99.90
13336;DHT22;6737;51.480;11.962;2023-02-26T04:34:15;-0.40;99.90
13336;DHT22;6737;51.480;11.962;2023-02-26T04:36:41;-0.40;99.90
13336;DHT22;6737;51.480;11.962;2023-02-26T04:39:07;-0.40;99.90
13336;DHT22;6737;51.480;11.962;2023-02-26T04:41:35;-0.40;99.90
13336;DHT22;6737;51.480;11.962;2023-02-26T04:44:02;-0.30;99.90
13336;DHT22;6737;51.480;11.962;2023-02-26T04:46:28;-0.40;99.90
13336;DHT22;6737;51.480;11.962;2023-02-26T04:48:54;-0.30;99.90
13336;DHT22;6737;51.480;11.962;2023-02-26T04:51:20;-0.30;99.90
13336;DHT22;6737;51.480;11.962;2023-02-26T04:53:46;-0.30;99.90
13336;DHT22;6737;51.480;11.962;2023-02-26T04:56:12;-0.30;99.90
13336;DHT22;6737;51.480;11.962;2023-02-26T04:58:37;-0.30;99.90
13336;DHT22;6737;51.480;11.962;2023-02-26T05:01:03;-0.40;99.90
13336;DHT22;6737;51.480;11.962;2023-02-26T05:03:30;-0.30;99.90
13336;DHT22;6737;51.480;11.962;2023-02-26T05:05:56;-0.30;99.90
13336;DHT22;6737;51.480;11.962;2023-02-26T05:08:22;-0.30;99.90
13336;DHT22;6737;51.480;11.962;2023-02-26T05:10:49;-0.40;99.90
13336;DHT22;6737;51.480;11.962;2023-02-26T05:13:15;-0.30;99.90
13336;DHT22;6737;51.480;11.962;2023-02-26T05:15:41;-0.30;99.90
13336;DHT22;6737;51.480;11.962;2023-02-26T05:18:07;-0.30;99.90
13336;DHT22;6737;51.480;11.962;2023-02-26T05:20:33;-0.30;99.90
13336;DHT22;6737;51.480;11.962;2023-02-26T05:22:58;-0.30;99.90
13336;DHT22;6737;51.480;11.962;2023-02-26T05:25:24;-0.40;99.90
13336;DHT22;6737;51.480;11.962;2023-02-26T05:27:50;-0.30;99.90
13336;DHT22;6737;51.480;11.962;2023-02-26T05:30:16;-0.30;99.90
13336;DHT22;6737;51.480;11.962;2023-02-26T05:32:42;-0.30;99.90
13336;DHT22;6737;51.480;11.962;2023-02-26T05:35:08;-0.30;99.90
13336;DHT22;6737;51.480;11.962;2023-02-26T05:37:35;-0.30;99.90
13336;DHT22;6737;51.480;11.962;2023-02-26T05:40:02;-0.40;99.90
13336;DHT22;6737;51.480;11.962;2023-02-26T05:42:29;-0.30;99.90
13336;DHT22;6737;51.480;11.962;2023-02-26T05:44:55;-0.40;99.90
13336;DHT22;6737;51.480;11.962;2023-02-26T05:47:22;-0.30;99.90
13336;DHT22;6737;51.480;11.962;2023-02-26T05:49:48;-0.30;99.90
13336;DHT22;6737;51.480;11.962;2023-02-26T05:52:14;-0.30;99.90
13336;DHT22;6737;51.480;11.962;2023-02-26T05:54:40;-0.40;99.90
13336;DHT22;6737;51.480;11.962;2023-02-26T05:57:06;-0.40;99.90
13336;DHT22;6737;51.480;11.962;2023-02-26T05:59:32;-0.40;99.90
13336;DHT22;6737;51.480;11.962;2023-02-26T06:01:57;-0.50;99.90
13336;DHT22;6737;51.480;11.962;2023-02-26T06:04:23;-0.50;99.90
13336;DHT22;6737;51.480;11.962;2023-02-26T06:06:49;-0.50;99.90
13336;DHT22;6737;51.480;11.962;2023-02-26T06:09:15;-0.40;99.90
13336;DHT22;6737;51.480;11.962;2023-02-26T06:11:41;-0.40;99.90
13336;DHT22;6737;51.480;11.962;2023-02-26T06:14:07;-0.40;99.90
13336;DHT22;6737;51.480;11.962;2023-02-26T06:16:32;-0.30;99.90
13336;DHT22;6737;51.480;11.962;2023-02-26T06:19:01;-0.30;99.90
13336;DHT22;6737;51.480;11.962;2023-02-26T06:21:27;-0.20;99.90
13336;DHT22;6737;51.480;11.962;2023-02-26T06:23:53;-0.20;99.90
13336;DHT22;6737;51.480;11.962;2023-02-26T06:26:18;-0.30;99.90
13336;DHT22;6737;51.480;11.962;2023-02-26T06:28:44;-0.30;99.90
13336;DHT22;6737;51.480;11.962;2023-02-26T06:31:10;-0.20;99.90
13336;DHT22;6737;51.480;11.962;2023-02-26T06:33:36;-0.20;99.90
13336;DHT22;6737;51.480;11.962;2023-02-26T06:36:02;-0.20;99.90
13336;DHT22;6737;51.480;11.962;2023-02-26T06:38:28;-0.20;99.90
13336;DHT22;6737;51.480;11.962;2023-02-26T06:40:54;-0.20;99.90
13336;DHT22;6737;51.480;11.962;2023-02-26T06:43:20;-0.20;99.90
13336;DHT22;6737;51.480;11.962;2023-02-26T06:45:45;-0.20;99.90
13336;DHT22;6737;51.480;11.962;2023-02-26T06:48:11;-0.10;99.90
13336;DHT22;6737;51.480;11.962;2023-02-26T06:50:37;-0.10;99.90
13336;DHT22;6737;51.480;11.962;2023-02-26T06:53:04;-0.10;99.90
13336;DHT22;6737;51.480;11.962;2023-02-26T06:55:30;0.00;99.90
13336;DHT22;6737;51.480;11.962;2023-02-26T06:57:56;0.00;99.90
13336;DHT22;6737;51.480;11.962;2023-02-26T07:00:23;0.00;99.90
13336;DHT22;6737;51.480;11.962;2023-02-26T07:02:50;0.00;99.90
13336;DHT22;6737;51.480;11.962;2023-02-26T07:05:15;0.00;99.90
13336;DHT22;6737;51.480;11.962;2023-02-26T07:07:41;0.00;99.90
13336;DHT22;6737;51.480;11.962;2023-02-26T07:10:09;0.10;99.90
13336;DHT22;6737;51.480;11.962;2023-02-26T07:12:35;0.10;99.90
13336;DHT22;6737;51.480;11.962;2023-02-26T07:15:06;0.10;99.90
13336;DHT22;6737;51.480;11.962;2023-02-26T07:17:32;0.20;99.90
13336;DHT22;6737;51.480;11.962;2023-02-26T07:19:58;0.20;99.90
13336;DHT22;6737;51.480;11.962;2023-02-26T07:22:25;0.20;99.90
13336;DHT22;6737;51.480;11.962;2023-02-26T07:24:51;0.30;99.90
13336;DHT22;6737;51.480;11.962;2023-02-26T07:27:16;0.30;99.90
13336;DHT22;6737;51.480;11.962;2023-02-26T07:29:42;0.30;99.90
13336;DHT22;6737;51.480;11.962;2023-02-26T07:32:08;0.30;99.90
13336;DHT22;6737;51.480;11.962;2023-02-26T07:34:34;0.30;99.90
13336;DHT22;6737;51.480;11.962;2023-02-26T07:36:59;0.40;99.90
13336;DHT22;6737;51.480;11.962;2023-02-26T07:39:26;0.30;99.90
13336;DHT22;6737;51.480;11.962;2023-02-26T07:41:52;0.30;99.90
13336;DHT22;6737;51.480;11.962;2023-02-26T07:44:18;0.30;99.90
13336;DHT22;6737;51.480;11.962;2023-02-26T07:46:43;0.40;99.90
13336;DHT22;6737;51.480;11.962;2023-02-26T07:49:09;0.30;99.90
13336;DHT22;6737;51.480;11.962;2023-02-26T07:51:36;0.30;99.90
13336;DHT22;6737;51.480;11.962;2023-02-26T07:54:03;0.30;99.90
13336;DHT22;6737;51.480;11.962;2023-02-26T07:56:28;0.40;99.90
13336;DHT22;6737;51.480;11.962;2023-02-26T07:58:55;0.40;99.90
13336;DHT22;6737;51.480;11.962;2023-02-26T08:01:21;0.40;99.90
13336;DHT22;6737;51.480;11.962;2023-02-26T08:03:47;0.40;99.90
13336;DHT22;6737;51.480;11.962;2023-02-26T08:06:12;0.40;99.90
13336;DHT22;6737;51.480;11.962;2023-02-26T08:08:39;0.30;99.90
13336;DHT22;6737;51.480;11.962;2023-02-26T08:11:04;0.40;99.90
13336;DHT22;6737;51.480;11.962;2023-02-26T08:13:30;0.40;99.90
13336;DHT22;6737;51.480;11.962;2023-02-26T08:15:56;0.40;99.90
13336;DHT22;6737;51.480;11.962;2023-02-26T08:18:22;0.40;99.90
13336;DHT22;6737;51.480;11.962;2023-02-26T08:20:50;0.40;99.90
13336;DHT22;6737;51.480;11.962;2023-02-26T08:23:17;0.50;99.90
13336;DHT22;6737;51.480;11.962;2023-02-26T08:25:43;0.50;99.90
13336;DHT22;6737;51.480;11.962;2023-02-26T08:28:08;0.60;99.90
13336;DHT22;6737;51.480;11.962;2023-02-26T08:30:34;0.50;99.90
13336;DHT22;6737;51.480;11.962;2023-02-26T08:33:00;0.60;99.90
13336;DHT22;6737;51.480;11.962;2023-02-26T08:35:26;0.60;99.90
13336;DHT22;6737;51.480;11.962;2023-02-26T08:37:51;0.70;99.90
13336;DHT22;6737;51.480;11.962;2023-02-26T08:40:17;0.70;99.90
13336;DHT22;6737;51.480;11.962;2023-02-26T08:42:43;0.70;99.90
13336;DHT22;6737;51.480;11.962;2023-02-26T08:45:09;0.70;99.90
13336;DHT22;6737;51.480;11.962;2023-02-26T08:47:35;0.70;99.90
13336;DHT22;6737;51.480;11.962;2023-02-26T08:50:03;0.80;99.90
13336;DHT22;6737;51.480;11.962;2023-02-26T08:52:29;0.80;99.90
13336;DHT22;6737;51.480;11.962;2023-02-26T08:54:55;0.80;99.90
13336;DHT22;6737;51.480;11.962;2023-02-26T08:57:21;0.90;99.90
13336;DHT22;6737;51.480;11.962;2023-02-26T08:59:46;0.90;99.90
13336;DHT22;6737;51.480;11.962;2023-02-26T09:02:13;1.00;99.90
13336;DHT22;6737;51.480;11.962;2023-02-26T09:04:39;1.00;99.90
13336;DHT22;6737;51.480;11.962;2023-02-26T09:07:05;1.00;99.90
13336;DHT22;6737;51.480;11.962;2023-02-26T09:09:31;1.00;99.90
13336;DHT22;6737;51.480;11.962;2023-02-26T09:11:57;1.00;99.90
13336;DHT22;6737;51.480;11.962;2023-02-26T09:14:23;1.00;99.90
13336;DHT22;6737;51.480;11.962;2023-02-26T09:16:49;1.10;99.90
13336;DHT22;6737;51.480;11.962;2023-02-26T09:19:16;1.20;99.90
13336;DHT22;6737;51.480;11.962;2023-02-26T09:21:41;1.20;99.90
13336;DHT22;6737;51.480;11.962;2023-02-26T09:24:08;1.20;99.90
13336;DHT22;6737;51.480;11.962;2023-02-26T09:26:34;1.30;99.90
13336;DHT22;6737;51.480;11.962;2023-02-26T09:29:00;1.30;99.90
13336;DHT22;6737;51.480;11.962;2023-02-26T09:31:26;1.30;99.90
13336;DHT22;6737;51.480;11.962;2023-02-26T09:33:52;1.40;99.90
13336;DHT22;6737;51.480;11.962;2023-02-26T09:36:18;1.50;99.90
13336;DHT22;6737;51.480;11.962;2023-02-26T09:38:44;1.50;99.90
13336;DHT22;6737;51.480;11.962;2023-02-26T09:41:44;1.50;99.90
13336;DHT22;6737;51.480;11.962;2023-02-26T09:46:55;1.40;99.90
13336;DHT22;6737;51.480;11.962;2023-02-26T09:54:52;1.50;99.90
13336;DHT22;6737;51.480;11.962;2023-02-26T09:57:41;1.50;99.90
13336;DHT22;6737;51.480;11.962;2023-02-26T10:00:29;1.50;99.90
13336;DHT22;6737;51.480;11.962;2023-02-26T10:06:25;1.60;99.90
13336;DHT22;6737;51.480;11.962;2023-02-26T10:14:37;1.80;99.90
13336;DHT22;6737;51.480;11.962;2023-02-26T10:26:04;1.90;99.90
13336;DHT22;6737;51.480;11.962;2023-02-26T10:42:38;2.10;99.90
13336;DHT22;6737;51.480;11.962;2023-02-26T10:50:26;2.10;99.90
13336;DHT22;6737;51.480;11.962;2023-02-26T10:52:53;2.20;99.90
13336;DHT22;6737;51.480;11.962;2023-02-26T10:55:40;2.30;99.90
13336;DHT22;6737;51.480;11.962;2023-02-26T10:58:22;2.30;99.90
13336;DHT22;6737;51.480;11.962;2023-02-26T11:00:51;2.30;99.90
13336;DHT22;6737;51.480;11.962;2023-02-26T11:03:36;2.30;99.90
13336;DHT22;6737;51.480;11.962;2023-02-26T11:06:05;2.30;99.90
13336;DHT22;6737;51.480;11.962;2023-02-26T11:08:39;2.30;99.90
13336;DHT22;6737;51.480;11.962;2023-02-26T11:11:07;2.30;99.90
13336;DHT22;6737;51.480;11.962;2023-02-26T11:13:36;2.30;99.90
13336;DHT22;6737;51.480;11.962;2023-02-26T11:16:14;2.30;99.90
13336;DHT22;6737;51.480;11.962;2023-02-26T11:18:48;2.40;99.90
13336;DHT22;6737;51.480;11.962;2023-02-26T11:21:23;2.30;99.90
13336;DHT22;6737;51.480;11.962;2023-02-26T11:23:57;2.30;99.90
13336;DHT22;6737;51.480;11.962;2023-02-26T11:26:26;2.30;99.90
13336;DHT22;6737;51.480;11.962;2023-02-26T11:28:57;2.40;99.90
13336;DHT22;6737;51.480;11.962;2023-02-26T11:31:24;2.40;99.90
13336;DHT22;6737;51.480;11.962;2023-02-26T11:33:59;2.40;99.90
13336;DHT22;6737;51.480;11.962;2023-02-26T11:36:29;2.40;99.90
13336;DHT22;6737;51.480;11.962;2023-02-26T11:39:00;2.60;99.90
13336;DHT22;6737;51.480;11.962;2023-02-26T11:41:27;2.70;99.90
13336;DHT22;6737;51.480;11.962;2023-02-26T11:44:15;2.80;99.90
13336;DHT22;6737;51.480;11.962;2023-02-26T11:46:47;3.00;99.90
13336;DHT22;6737;51.480;11.962;2023-02-26T11:49:17;3.20;99.90
13336;DHT22;6737;51.480;11.962;2023-02-26T11:51:46;3.30;99.90
13336;DHT22;6737;51.480;11.962;2023-02-26T11:54:27;3.50;99.90
13336;DHT22;6737;51.480;11.962;2023-02-26T11:57:01;3.40;99.90
13336;DHT22;6737;51.480;11.962;2023-02-26T11:59:30;3.20;99.90
13336;DHT22;6737;51.480;11.962;2023-02-26T12:02:02;3.10;99.90
13336;DHT22;6737;51.480;11.962;2023-02-26T12:04:30;3.10;99.90
13336;DHT22;6737;51.480;11.962;2023-02-26T12:06:56;3.10;99.90
13336;DHT22;6737;51.480;11.962;2023-02-26T12:09:24;3.10;99.90
13336;DHT22;6737;51.480;11.962;2023-02-26T12:14:40;2.80;99.90
13336;DHT22;6737;51.480;11.962;2023-02-26T12:20:19;2.80;99.90
13336;DHT22;6737;51.480;11.962;2023-02-26T12:39:13;2.80;99.90
13336;DHT22;6737;51.480;11.962;2023-02-26T12:44:48;2.80;99.90
13336;DHT22;6737;51.480;11.962;2023-02-26T12:47:39;2.80;99.90
13336;DHT22;6737;51.480;11.962;2023-02-26T12:55:56;3.00;99.90
13336;DHT22;6737;51.480;11.962;2023-02-26T13:06:39;3.40;99.90
13336;DHT22;6737;51.480;11.962;2023-02-26T13:12:14;3.60;99.90
13336;DHT22;6737;51.480;11.962;2023-02-26T13:17:38;3.30;99.90
13336;DHT22;6737;51.480;11.962;2023-02-26T13:20:16;3.10;99.90
13336;DHT22;6737;51.480;11.962;2023-02-26T13:22:51;3.00;99.90
13336;DHT22;6737;51.480;11.962;2023-02-26T13:25:31;3.00;99.90
13336;DHT22;6737;51.480;11.962;2023-02-26T13:33:56;3.00;99.90
13336;DHT22;6737;51.480;11.962;2023-02-26T13:36:24;3.00;99.90
13336;DHT22;6737;51.480;11.962;2023-02-26T13:48:07;3.00;99.90
13336;DHT22;6737;51.480;11.962;2023-02-26T13:50:59;3.00;99.90
13336;DHT22;6737;51.480;11.962;2023-02-26T13:56:22;3.00;99.90
13336;DHT22;6737;51.480;11.962;2023-02-26T13:58:53;3.00;99.90
13336;DHT22;6737;51.480;11.962;2023-02-26T14:01:28;2.80;99.90
13336;DHT22;6737;51.480;11.962;2023-02-26T14:04:29;2.80;99.90
13336;DHT22;6737;51.480;11.962;2023-02-26T14:07:13;2.80;99.90
13336;DHT22;6737;51.480;11.962;2023-02-26T14:10:01;2.80;99.90
13336;DHT22;6737;51.480;11.962;2023-02-26T14:12:37;2.90;99.90
13336;DHT22;6737;51.480;11.962;2023-02-26T14:17:47;3.10;99.90
13336;DHT22;6737;51.480;11.962;2023-02-26T14:25:46;3.30;99.90
13336;DHT22;6737;51.480;11.962;2023-02-26T14:28:28;3.20;99.90
13336;DHT22;6737;51.480;11.962;2023-02-26T14:33:37;3.30;99.90
13336;DHT22;6737;51.480;11.962;2023-02-26T14:36:12;3.30;99.90
13336;DHT22;6737;51.480;11.962;2023-02-26T14:38:40;3.20;99.90
13336;DHT22;6737;51.480;11.962;2023-02-26T14:41:30;3.20;99.90
13336;DHT22;6737;51.480;11.962;2023-02-26T14:44:15;3.10;99.90
13336;DHT22;6737;51.480;11.962;2023-02-26T14:46:43;3.10;99.90
13336;DHT22;6737;51.480;11.962;2023-02-26T14:49:22;3.10;99.90
13336;DHT22;6737;51.480;11.962;2023-02-26T14:55:12;3.00;99.90
13336;DHT22;6737;51.480;11.962;2023-02-26T15:00:51;2.90;99.90
13336;DHT22;6737;51.480;11.962;2023-02-26T15:08:50;2.90;99.90
13336;DHT22;6737;51.480;11.962;2023-02-26T15:14:32;2.90;99.90
13336;DHT22;6737;51.480;11.962;2023-02-26T15:22:47;2.90;99.90
13336;DHT22;6737;51.480;11.962;2023-02-26T15:25:29;2.90;99.90
13336;DHT22;6737;51.480;11.962;2023-02-26T15:27:56;2.90;99.90
13336;DHT22;6737;51.480;11.962;2023-02-26T15:30:22;2.80;99.90
13336;DHT22;6737;51.480;11.962;2023-02-26T15:32:56;2.80;99.90
13336;DHT22;6737;51.480;11.962;2023-02-26T15:35:22;2.80;99.90
13336;DHT22;6737;51.480;11.962;2023-02-26T15:37:53;2.80;99.90
13336;DHT22;6737;51.480;11.962;2023-02-26T15:40:21;2.90;99.90
13336;DHT22;6737;51.480;11.962;2023-02-26T15:42:50;2.80;99.90
13336;DHT22;6737;51.480;11.962;2023-02-26T15:45:26;2.90;99.90
13336;DHT22;6737;51.480;11.962;2023-02-26T15:47:58;2.90;99.90
13336;DHT22;6737;51.480;11.962;2023-02-26T15:50:28;2.90;99.90
13336;DHT22;6737;51.480;11.962;2023-02-26T15:53:04;2.80;99.90
13336;DHT22;6737;51.480;11.962;2023-02-26T15:55:38;2.80;99.90
13336;DHT22;6737;51.480;11.962;2023-02-26T15:58:08;2.80;99.90
13336;DHT22;6737;51.480;11.962;2023-02-26T16:00:35;2.80;99.90
13336;DHT22;6737;51.480;11.962;2023-02-26T16:03:02;2.70;99.90
13336;DHT22;6737;51.480;11.962;2023-02-26T16:05:29;2.70;99.90
13336;DHT22;6737;51.480;11.962;2023-02-26T16:07:56;2.70;99.90
13336;DHT22;6737;51.480;11.962;2023-02-26T16:10:39;2.60;99.90
13336;DHT22;6737;51.480;11.962;2023-02-26T16:13:07;2.60;99.90
13336;DHT22;6737;51.480;11.962;2023-02-26T16:15:39;2.60;99.90
13336;DHT22;6737;51.480;11.962;2023-02-26T16:18:08;2.50;99.90
13336;DHT22;6737;51.480;11.962;2023-02-26T16:20:45;2.50;99.90
13336;DHT22;6737;51.480;11.962;2023-02-26T16:23:17;2.30;99.90
13336;DHT22;6737;51.480;11.962;2023-02-26T16:25:59;2.30;99.90
13336;DHT22;6737;51.480;11.962;2023-02-26T16:28:36;2.40;99.90
13336;DHT22;6737;51.480;11.962;2023-02-26T16:31:24;2.40;99.90
13336;DHT22;6737;51.480;11.962;2023-02-26T16:34:02;2.40;99.90
13336;DHT22;6737;51.480;11.962;2023-02-26T16:36:46;2.40;99.90
13336;DHT22;6737;51.480;11.962;2023-02-26T16:39:24;2.30;99.90
13336;DHT22;6737;51.480;11.962;2023-02-26T16:42:20;2.20;99.90
13336;DHT22;6737;51.480;11.962;2023-02-26T16:47:37;2.20;99.90
13336;DHT22;6737;51.480;11.962;2023-02-26T16:50:42;2.20;99.90
13336;DHT22;6737;51.480;11.962;2023-02-26T16:53:20;2.20;99.90
13336;DHT22;6737;51.480;11.962;2023-02-26T16:55:51;2.30;99.90
13336;DHT22;6737;51.480;11.962;2023-02-26T16:58:19;2.20;99.90
13336;DHT22;6737;51.480;11.962;2023-02-26T17:00:55;2.20;99.90
13336;DHT22;6737;51.480;11.962;2023-02-26T17:03:26;2.20;99.90
13336;DHT22;6737;51.480;11.962;2023-02-26T17:06:10;2.20;99.90
13336;DHT22;6737;51.480;11.962;2023-02-26T17:08:50;2.20;99.90
13336;DHT22;6737;51.480;11.962;2023-02-26T17:11:29;2.10;99.90
13336;DHT22;6737;51.480;11.962;2023-02-26T17:14:12;2.10;99.90
13336;DHT22;6737;51.480;11.962;2023-02-26T17:16:40;2.10;99.90
13336;DHT22;6737;51.480;11.962;2023-02-26T17:19:05;2.00;99.90
13336;DHT22;6737;51.480;11.962;2023-02-26T17:21:31;1.90;99.90
13336;DHT22;6737;51.480;11.962;2023-02-26T17:23:57;2.00;99.90
13336;DHT22;6737;51.480;11.962;2023-02-26T17:26:24;2.00;99.90
13336;DHT22;6737;51.480;11.962;2023-02-26T17:28:50;2.00;99.90
13336;DHT22;6737;51.480;11.962;2023-02-26T17:31:15;2.00;99.90
13336;DHT22;6737;51.480;11.962;2023-02-26T17:33:42;2.00;99.90
13336;DHT22;6737;51.480;11.962;2023-02-26T17:36:13;1.90;99.90
13336;DHT22;6737;51.480;11.962;2023-02-26T17:38:39;1.90;99.90
13336;DHT22;6737;51.480;11.962;2023-02-26T17:41:15;1.90;99.90
13336;DHT22;6737;51.480;11.962;2023-02-26T17:43:41;1.90;99.90
13336;DHT22;6737;51.480;11.962;2023-02-26T17:46:09;1.90;99.90
13336;DHT22;6737;51.480;11.962;2023-02-26T17:48:36;1.80;99.90
13336;DHT22;6737;51.480;11.962;2023-02-26T17:51:02;1.80;99.90
13336;DHT22;6737;51.480;11.962;2023-02-26T17:53:28;1.80;99.90
13336;DHT22;6737;51.480;11.962;2023-02-26T17:55:58;1.80;99.90
13336;DHT22;6737;51.480;11.962;2023-02-26T17:58:27;1.80;99.90
13336;DHT22;6737;51.480;11.962;2023-02-26T18:00:54;1.70;99.90
13336;DHT22;6737;51.480;11.962;2023-02-26T18:03:20;1.70;99.90
13336;DHT22;6737;51.480;11.962;2023-02-26T18:05:47;1.70;99.90
13336;DHT22;6737;51.480;11.962;2023-02-26T18:08:33;1.70;99.90
13336;DHT22;6737;51.480;11.962;2023-02-26T18:11:00;1.60;99.90
13336;DHT22;6737;51.480;11.962;2023-02-26T18:13:27;1.60;99.90
13336;DHT22;6737;51.480;11.962;2023-02-26T18:15:54;1.60;99.90
13336;DHT22;6737;51.480;11.962;2023-02-26T18:18:24;1.50;99.90
13336;DHT22;6737;51.480;11.962;2023-02-26T18:20:50;1.50;99.90
13336;DHT22;6737;51.480;11.962;2023-02-26T18:23:16;1.50;99.90
13336;DHT22;6737;51.480;11.962;2023-02-26T18:25:47;1.50;99.90
13336;DHT22;6737;51.480;11.962;2023-02-26T18:28:20;1.60;99.90
13336;DHT22;6737;51.480;11.962;2023-02-26T18:30:46;1.60;99.90
13336;DHT22;6737;51.480;11.962;2023-02-26T18:33:14;1.50;99.90
13336;DHT22;6737;51.480;11.962;2023-02-26T18:35:43;1.40;99.90
13336;DHT22;6737;51.480;11.962;2023-02-26T18:38:14;1.50;99.90
13336;DHT22;6737;51.480;11.962;2023-02-26T18:40:41;1.50;99.90
13336;DHT22;6737;51.480;11.962;2023-02-26T18:43:07;1.50;99.90
13336;DHT22;6737;51.480;11.962;2023-02-26T18:45:44;1.50;99.90
13336;DHT22;6737;51.480;11.962;2023-02-26T18:48:13;1.30;99.90
13336;DHT22;6737;51.480;11.962;2023-02-26T18:50:41;1.20;99.90
13336;DHT22;6737;51.480;11.962;2023-02-26T18:53:07;1.20;99.90
13336;DHT22;6737;51.480;11.962;2023-02-26T18:55:33;1.10;99.90
13336;DHT22;6737;51.480;11.962;2023-02-26T18:57:59;1.10;99.90
13336;DHT22;6737;51.480;11.962;2023-02-26T19:00:25;1.00;99.90
13336;DHT22;6737;51.480;11.962;2023-02-26T19:02:53;1.00;99.90
13336;DHT22;6737;51.480;11.962;2023-02-26T19:05:19;1.00;99.90
13336;DHT22;6737;51.480;11.962;2023-02-26T19:07:53;0.90;99.90
13336;DHT22;6737;51.480;11.962;2023-02-26T19:10:19;0.80;99.90
13336;DHT22;6737;51.480;11.962;2023-02-26T19:12:44;0.80;99.90
13336;DHT22;6737;51.480;11.962;2023-02-26T19:15:11;0.70;99.90
13336;DHT22;6737;51.480;11.962;2023-02-26T19:17:40;0.70;99.90
13336;DHT22;6737;51.480;11.962;2023-02-26T19:20:08;0.60;99.90
13336;DHT22;6737;51.480;11.962;2023-02-26T19:22:34;0.60;99.90
13336;DHT22;6737;51.480;11.962;2023-02-26T19:25:00;0.50;99.90
13336;DHT22;6737;51.480;11.962;2023-02-26T19:27:26;0.40;99.90